sensor_id;sensor_type;location;lat;lon;timestamp;pressure;altitude;pressure_sealevel;temperature;humidity
50087;BME280;35967;50.718;7.050;2023-04-10T00:18:46;101410.16;;;9.38;62.88
50087;BME280;35967;50.718;7.050;2023-04-10T00:28:50;101408.53;;;9.21;62.79
50087;BME280;35967;50.718;7.050;2023-04-10T00:38:54;101393.09;;;9.27;62.83
50087;BME280;35967;50.718;7.050;2023-04-10T00:48:57;101389.78;;;9.04;64.51
50087;BME280;35967;50.718;7.050;2023-04-10T00:59:02;101389.72;;;9.11;63.18
50087;BME280;35967;50.718;7.050;2023-04-10T01:09:10;101390.66;;;9.01;64.03
50087;BME280;35967;50.718;7.050;2023-04-10T01:19:26;101379.50;;;9.00;64.80
50087;BME280;35967;50.718;7.050;2023-04-10T01:29:40;101358.97;;;8.99;63.37
50087;BME280;35967;50.718;7.050;2023-04-10T01:39:50;101341.94;;;8.81;64.18
50087;BME280;35967;50.718;7.050;2023-04-10T01:49:58;101318.03;;;8.68;66.04
50087;BME280;35967;50.718;7.050;2023-04-10T02:00:04;101322.34;;;8.38;67.54
50087;BME280;35967;50.718;7.050;2023-04-10T02:10:21;101302.66;;;8.45;67.36
50087;BME280;35967;50.718;7.050;2023-04-10T02:20:27;101282.88;;;8.79;64.77
50087;BME280;35967;50.718;7.050;2023-04-10T02:30:32;101291.31;;;9.03;63.73
50087;BME280;35967;50.718;7.050;2023-04-10T02:40:35;101288.75;;;9.03;63.29
50087;BME280;35967;50.718;7.050;2023-04-10T02:50:48;101292.19;;;8.97;62.48
50087;BME280;35967;50.718;7.050;2023-04-10T03:00:52;101300.09;;;8.51;65.87
50087;BME280;35967;50.718;7.050;2023-04-10T03:11:06;101283.91;;;8.24;69.22
50087;BME280;35967;50.718;7.050;2023-04-10T03:21:10;101271.91;;;8.35;69.14
50087;BME280;35967;50.718;7.050;2023-04-10T03:31:15;101264.19;;;8.49;68.59
50087;BME280;35967;50.718;7.050;2023-04-10T03:41:19;101255.63;;;8.38;67.95
50087;BME280;35967;50.718;7.050;2023-04-10T03:51:27;101254.91;;;7.93;70.44
50087;BME280;35967;50.718;7.050;2023-04-10T04:01:30;101241.28;;;7.58;73.45
50087;BME280;35967;50.718;7.050;2023-04-10T04:11:40;101213.84;;;8.07;68.24
50087;BME280;35967;50.718;7.050;2023-04-10T04:22:13;101211.22;;;8.28;66.30
50087;BME280;35967;50.718;7.050;2023-04-10T04:32:40;101210.38;;;8.26;65.40
50087;BME280;35967;50.718;7.050;2023-04-10T04:42:59;101220.63;;;8.26;65.36
50087;BME280;35967;50.718;7.050;2023-04-10T04:53:30;101224.88;;;8.33;64.62
50087;BME280;35967;50.718;7.050;2023-04-10T05:03:52;101240.41;;;7.65;70.77
50087;BME280;35967;50.718;7.050;2023-04-10T05:14:28;101221.63;;;7.66;72.61
50087;BME280;35967;50.718;7.050;2023-04-10T05:24:43;101221.59;;;7.83;71.13
50087;BME280;35967;50.718;7.050;2023-04-10T05:35:03;101225.75;;;8.26;68.83
50087;BME280;35967;50.718;7.050;2023-04-10T05:45:38;101224.81;;;8.58;65.12
50087;BME280;35967;50.718;7.050;2023-04-10T05:56:13;101242.41;;;9.23;63.80
50087;BME280;35967;50.718;7.050;2023-04-10T06:06:30;101238.91;;;9.30;61.90
50087;BME280;35967;50.718;7.050;2023-04-10T06:16:35;101230.28;;;9.41;61.12
50087;BME280;35967;50.718;7.050;2023-04-10T06:26:38;101214.78;;;9.53;60.16
50087;BME280;35967;50.718;7.050;2023-04-10T06:36:42;101201.72;;;9.75;59.26
50087;BME280;35967;50.718;7.050;2023-04-10T06:46:46;101209.00;;;10.15;59.02
50087;BME280;35967;50.718;7.050;2023-04-10T06:56:51;101217.28;;;10.44;57.20
50087;BME280;35967;50.718;7.050;2023-04-10T07:06:59;101217.03;;;10.61;56.00
50087;BME280;35967;50.718;7.050;2023-04-10T07:17:04;101217.38;;;10.98;54.96
50087;BME280;35967;50.718;7.050;2023-04-10T07:27:07;101203.25;;;11.24;53.21
50087;BME280;35967;50.718;7.050;2023-04-10T07:37:11;101192.31;;;11.61;52.44
50087;BME280;35967;50.718;7.050;2023-04-10T07:47:15;101179.09;;;11.80;51.14
50087;BME280;35967;50.718;7.050;2023-04-10T07:57:20;101179.09;;;11.78;50.30
50087;BME280;35967;50.718;7.050;2023-04-10T08:07:23;101155.56;;;11.97;50.39
50087;BME280;35967;50.718;7.050;2023-04-10T08:17:28;101157.88;;;12.11;50.34
50087;BME280;35967;50.718;7.050;2023-04-10T08:27:31;101151.31;;;12.37;49.98
50087;BME280;35967;50.718;7.050;2023-04-10T08:37:36;101139.41;;;13.05;48.21
50087;BME280;35967;50.718;7.050;2023-04-10T08:47:40;101121.06;;;12.80;47.68
50087;BME280;35967;50.718;7.050;2023-04-10T08:57:47;101118.16;;;12.93;46.55
50087;BME280;35967;50.718;7.050;2023-04-10T09:08:02;101082.97;;;13.22;46.97
50087;BME280;35967;50.718;7.050;2023-04-10T09:18:07;101056.94;;;13.29;45.38
50087;BME280;35967;50.718;7.050;2023-04-10T09:28:10;101041.78;;;13.48;46.22
50087;BME280;35967;50.718;7.050;2023-04-10T09:38:19;101031.91;;;13.92;44.91
50087;BME280;35967;50.718;7.050;2023-04-10T09:48:23;101037.09;;;13.92;44.84
50087;BME280;35967;50.718;7.050;2023-04-10T09:58:29;101024.16;;;14.20;44.65
50087;BME280;35967;50.718;7.050;2023-04-10T10:08:33;101013.88;;;14.71;44.08
50087;BME280;35967;50.718;7.050;2023-04-10T10:18:43;101000.06;;;14.97;41.85
50087;BME280;35967;50.718;7.050;2023-04-10T10:28:49;100996.19;;;15.33;39.95
50087;BME280;35967;50.718;7.050;2023-04-10T10:39:17;100984.44;;;15.70;38.71
50087;BME280;35967;50.718;7.050;2023-04-10T10:49:50;100933.81;;;16.04;38.49
50087;BME280;35967;50.718;7.050;2023-04-10T10:59:55;100898.03;;;16.11;40.05
50087;BME280;35967;50.718;7.050;2023-04-10T11:09:58;100864.09;;;16.36;38.14
50087;BME280;35967;50.718;7.050;2023-04-10T11:20:03;100863.13;;;16.18;36.84
50087;BME280;35967;50.718;7.050;2023-04-10T11:30:27;100830.75;;;16.46;36.24
50087;BME280;35967;50.718;7.050;2023-04-10T11:40:31;100810.22;;;16.40;33.54
50087;BME280;35967;50.718;7.050;2023-04-10T11:50:34;100797.94;;;16.44;33.49
50087;BME280;35967;50.718;7.050;2023-04-10T12:00:39;100792.47;;;16.50;34.63
50087;BME280;35967;50.718;7.050;2023-04-10T12:10:45;100783.88;;;16.48;34.75
50087;BME280;35967;50.718;7.050;2023-04-10T12:20:50;100763.81;;;16.70;33.97
50087;BME280;35967;50.718;7.050;2023-04-10T12:30:56;100743.84;;;16.90;34.13
50087;BME280;35967;50.718;7.050;2023-04-10T12:41:02;100728.25;;;17.27;33.74
50087;BME280;35967;50.718;7.050;2023-04-10T12:51:05;100726.81;;;17.74;33.76
50087;BME280;35967;50.718;7.050;2023-04-10T13:01:10;100717.09;;;18.11;32.84
50087;BME280;35967;50.718;7.050;2023-04-10T13:11:16;100703.53;;;18.04;33.34
50087;BME280;35967;50.718;7.050;2023-04-10T13:21:20;100678.47;;;17.86;33.67
50087;BME280;35967;50.718;7.050;2023-04-10T13:31:27;100667.09;;;18.20;34.50
50087;BME280;35967;50.718;7.050;2023-04-10T13:41:32;100630.72;;;18.35;33.49
50087;BME280;35967;50.718;7.050;2023-04-10T13:51:35;100593.09;;;18.55;30.17
50087;BME280;35967;50.718;7.050;2023-04-10T14:01:39;100579.03;;;18.73;27.37
50087;BME280;35967;50.718;7.050;2023-04-10T14:11:43;100552.81;;;18.60;28.92
50087;BME280;35967;50.718;7.050;2023-04-10T14:21:47;100553.03;;;18.72;29.25
50087;BME280;35967;50.718;7.050;2023-04-10T14:31:50;100543.28;;;18.45;29.10
50087;BME280;35967;50.718;7.050;2023-04-10T14:42:01;100523.47;;;18.26;29.35
50087;BME280;35967;50.718;7.050;2023-04-10T14:52:04;100536.94;;;18.03;30.27
50087;BME280;35967;50.718;7.050;2023-04-10T15:02:09;100504.81;;;18.18;31.00
50087;BME280;35967;50.718;7.050;2023-04-10T15:12:14;100512.81;;;17.99;30.78
50087;BME280;35967;50.718;7.050;2023-04-10T15:22:18;100522.13;;;17.87;32.05
50087;BME280;35967;50.718;7.050;2023-04-10T15:32:22;100512.13;;;17.79;33.19
50087;BME280;35967;50.718;7.050;2023-04-10T15:42:26;100506.34;;;17.58;33.64
50087;BME280;35967;50.718;7.050;2023-04-10T15:52:30;100511.59;;;17.41;34.16
50087;BME280;35967;50.718;7.050;2023-04-10T16:02:35;100501.34;;;17.22;35.54
50087;BME280;35967;50.718;7.050;2023-04-10T16:12:40;100476.88;;;17.08;36.11
50087;BME280;35967;50.718;7.050;2023-04-10T16:22:45;100463.97;;;17.07;36.42
50087;BME280;35967;50.718;7.050;2023-04-10T16:32:48;100450.75;;;16.94;36.69
50087;BME280;35967;50.718;7.050;2023-04-10T16:42:53;100416.56;;;16.84;37.67
50087;BME280;35967;50.718;7.050;2023-04-10T16:52:56;100418.31;;;16.83;38.08
50087;BME280;35967;50.718;7.050;2023-04-10T17:03:01;100385.72;;;16.78;38.21
50087;BME280;35967;50.718;7.050;2023-04-10T17:13:04;100366.84;;;16.74;39.21
50087;BME280;35967;50.718;7.050;2023-04-10T17:23:09;100350.63;;;16.69;39.34
50087;BME280;35967;50.718;7.050;2023-04-10T17:33:12;100344.16;;;16.60;39.63
50087;BME280;35967;50.718;7.050;2023-04-10T17:43:16;100310.72;;;16.54;40.11
50087;BME280;35967;50.718;7.050;2023-04-10T17:53:19;100292.00;;;16.47;41.30
50087;BME280;35967;50.718;7.050;2023-04-10T18:03:24;100291.00;;;16.50;42.44
50087;BME280;35967;50.718;7.050;2023-04-10T18:13:27;100300.31;;;16.54;42.89
50087;BME280;35967;50.718;7.050;2023-04-10T18:23:32;100311.19;;;16.45;47.81
50087;BME280;35967;50.718;7.050;2023-04-10T18:33:35;100284.34;;;16.28;46.64
50087;BME280;35967;50.718;7.050;2023-04-10T18:43:39;100283.19;;;16.34;46.05
50087;BME280;35967;50.718;7.050;2023-04-10T18:53:45;100269.09;;;16.22;46.51
50087;BME280;35967;50.718;7.050;2023-04-10T19:03:50;100264.63;;;16.24;46.82
50087;BME280;35967;50.718;7.050;2023-04-10T19:13:54;100268.31;;;16.20;47.53
50087;BME280;35967;50.718;7.050;2023-04-10T19:23:59;100256.16;;;16.20;47.61
50087;BME280;35967;50.718;7.050;2023-04-10T19:34:02;100260.44;;;16.21;47.56
50087;BME280;35967;50.718;7.050;2023-04-10T19:44:11;100268.66;;;16.14;50.31
50087;BME280;35967;50.718;7.050;2023-04-10T19:54:15;100305.72;;;15.63;54.60
50087;BME280;35967;50.718;7.050;2023-04-10T20:04:19;100337.00;;;15.04;63.05
50087;BME280;35967;50.718;7.050;2023-04-10T20:14:23;100344.88;;;14.23;70.95
50087;BME280;35967;50.718;7.050;2023-04-10T20:24:28;100333.59;;;14.03;73.83
50087;BME280;35967;50.718;7.050;2023-04-10T20:34:31;100331.06;;;14.02;73.33
50087;BME280;35967;50.718;7.050;2023-04-10T20:44:36;100353.94;;;13.48;77.91
50087;BME280;35967;50.718;7.050;2023-04-10T20:54:39;100397.84;;;12.27;86.48
50087;BME280;35967;50.718;7.050;2023-04-10T21:04:43;100387.56;;;12.26;89.74
50087;BME280;35967;50.718;7.050;2023-04-10T21:14:46;100384.94;;;12.27;88.56
50087;BME280;35967;50.718;7.050;2023-04-10T21:24:51;100377.59;;;12.15;89.02
50087;BME280;35967;50.718;7.050;2023-04-10T21:34:54;100377.31;;;12.50;89.06
50087;BME280;35967;50.718;7.050;2023-04-10T21:44:59;100388.56;;;12.47;89.97
50087;BME280;35967;50.718;7.050;2023-04-10T21:55:02;100376.50;;;12.73;89.88
50087;BME280;35967;50.718;7.050;2023-04-10T22:05:08;100338.06;;;12.40;91.78
50087;BME280;35967;50.718;7.050;2023-04-10T22:15:12;100251.41;;;12.33;94.10
50087;BME280;35967;50.718;7.050;2023-04-10T22:25:17;100298.63;;;12.11;95.02
50087;BME280;35967;50.718;7.050;2023-04-10T22:35:20;100302.47;;;11.99;93.20
50087;BME280;35967;50.718;7.050;2023-04-10T22:45:25;100273.72;;;11.83;93.20
50087;BME280;35967;50.718;7.050;2023-04-10T22:55:28;100240.78;;;11.66;93.56
50087;BME280;35967;50.718;7.050;2023-04-10T23:05:33;100256.91;;;11.46;90.03
50087;BME280;35967;50.718;7.050;2023-04-10T23:15:36;100242.59;;;11.37;89.62
50087;BME280;35967;50.718;7.050;2023-04-10T23:25:41;100210.88;;;11.60;87.63
50087;BME280;35967;50.718;7.050;2023-04-10T23:35:44;100257.78;;;11.45;86.71
50087;BME280;35967;50.718;7.050;2023-04-10T23:45:48;100254.09;;;11.54;84.92
50087;BME280;35967;50.718;7.050;2023-04-10T23:55:51;100263.31;;;11.61;84.43
